Pilot No. 4 — WDA5463 — position and weather

sailwx.info

Track history (hours):
 
Tides and Currents Weather Stations Pressure Air Temp Water Temp Dewpoint Dewpoint Depression Visibility Wind Speed Wind Dir Waves Ship Positions

Pilot No. 4

Owner: P E P Inc, FORT LAUDERDALE, FL. More information available from US FCC via Universal Licensing System and Coast Guard Vessel Documentation Center.

Last reported at 2017-Apr-26 13:29 UTC. Time now 2017-Apr-28 13:57 UTC.
Position N 26°06' W 080°07'.

MMSI: 495270931.

Date/timePositionNaut miles runAvg speedWind from/ knotsBaromVisibWave heightAir tempDewpointWater temp
2017-Apr-26 13:29N 26°06' W 080°07'2 4.2
2017-Apr-26 13:00N 26°04' W 080°07'2 4.1
2017-Apr-26 12:30N 26°06' W 080°07'4 8.1
2017-Apr-26 12:00N 26°06' W 080°03'4 7.6
2017-Apr-26 11:30N 26°04' W 080°07'2 0.2
2017-Apr-26 02:37N 26°06' W 080°07'0 0.0
2017-Apr-25 17:36N 26°06' W 080°07'0 4.7
2017-Apr-25 17:30N 26°06' W 080°07'1 2.6
2017-Apr-25 17:00N 26°04' W 080°07'2 3.9
2017-Apr-25 16:30N 26°06' W 080°05'1 1.3
2017-Apr-25 16:00N 26°06' W 080°06'1 0.0
2017-Apr-24 02:41N 26°06' W 080°07'1 3.7
2017-Apr-24 02:23N 26°05' W 080°06'1 0.3
2017-Apr-24 00:20N 26°06' W 080°06'1 2.1
2017-Apr-23 23:52N 26°05' W 080°05'1 0.9
2017-Apr-23 22:55N 26°06' W 080°06'1 2.3
2017-Apr-23 22:31N 26°06' W 080°07'1 1.1
2017-Apr-23 21:45N 26°06' W 080°06'2 5.0
2017-Apr-23 21:21N 26°05' W 080°04'1 0.1
2017-Apr-23 11:14N 26°06' W 080°05'0 0.9
2017-Apr-23 10:53N 26°05' W 080°05'1 2.0
2017-Apr-23 10:23N 26°06' W 080°06'2 5.9
2017-Apr-23 10:00N 26°05' W 080°04'3 5.1
2017-Apr-23 09:30N 26°05' W 080°07'2 3.6
2017-Apr-23 09:01N 26°06' W 080°05'2 3.8
2017-Apr-23 08:30N 26°05' W 080°07'  
2017-Apr-17 17:26N 26°06' W 080°07'2 4.3
2017-Apr-17 17:00N 26°04' W 080°07'0 0.6
2017-Apr-17 16:30N 26°04' W 080°07'3 5.3
2017-Apr-17 16:00N 26°06' W 080°04'2 4.6
2017-Apr-17 15:31N 26°05' W 080°07'1 2.9
2017-Apr-17 15:01N 26°06' W 080°05'1 1.5
2017-Apr-17 14:00N 26°05' W 080°07'0 0.2
2017-Apr-17 13:31N 26°05' W 080°07'0 0.5
2017-Apr-17 12:39N 26°06' W 080°07'210.3
2017-Apr-17 12:31N 26°05' W 080°06'1 3.0
2017-Apr-17 12:01N 26°06' W 080°07'0 0.5
2017-Apr-17 11:31N 26°06' W 080°07'1 1.0
2017-Apr-17 11:00N 26°06' W 080°06'2 4.6
2017-Apr-17 10:30N 26°04' W 080°05'2 3.5
2017-Apr-17 10:01N 26°06' W 080°05'2 3.2
2017-Apr-17 09:30N 26°06' W 080°04'3 6.6
2017-Apr-17 09:00N 26°06' W 080°07'  
Track history (hours):
 
Tides and Currents Weather Stations Pressure Air Temp Water Temp Dewpoint Dewpoint Depression Visibility Wind Speed Wind Dir Waves Ship Positions

Pilot No. 4

Owner: P E P Inc, FORT LAUDERDALE, FL. More information available from US FCC via Universal Licensing System and Coast Guard Vessel Documentation Center.

Last reported at 2017-Apr-26 13:29 UTC. Time now 2017-Apr-28 13:57 UTC.
Position N 26°06' W 080°07'.

MMSI: 495270931.

Date/timePositionNaut miles runAvg speedWind from/ knotsBaromVisibWave heightAir tempDewpointWater temp
2017-Apr-26 13:29N 26°06' W 080°07'2 4.2
2017-Apr-26 13:00N 26°04' W 080°07'2 4.1
2017-Apr-26 12:30N 26°06' W 080°07'4 8.1
2017-Apr-26 12:00N 26°06' W 080°03'4 7.6
2017-Apr-26 11:30N 26°04' W 080°07'2 0.2
2017-Apr-26 02:37N 26°06' W 080°07'0 0.0
2017-Apr-25 17:36N 26°06' W 080°07'0 4.7
2017-Apr-25 17:30N 26°06' W 080°07'1 2.6
2017-Apr-25 17:00N 26°04' W 080°07'2 3.9
2017-Apr-25 16:30N 26°06' W 080°05'1 1.3
2017-Apr-25 16:00N 26°06' W 080°06'1 0.0
2017-Apr-24 02:41N 26°06' W 080°07'1 3.7
2017-Apr-24 02:23N 26°05' W 080°06'1 0.3
2017-Apr-24 00:20N 26°06' W 080°06'1 2.1
2017-Apr-23 23:52N 26°05' W 080°05'1 0.9
2017-Apr-23 22:55N 26°06' W 080°06'1 2.3
2017-Apr-23 22:31N 26°06' W 080°07'1 1.1
2017-Apr-23 21:45N 26°06' W 080°06'2 5.0
2017-Apr-23 21:21N 26°05' W 080°04'1 0.1
2017-Apr-23 11:14N 26°06' W 080°05'0 0.9
2017-Apr-23 10:53N 26°05' W 080°05'1 2.0
2017-Apr-23 10:23N 26°06' W 080°06'2 5.9
2017-Apr-23 10:00N 26°05' W 080°04'3 5.1
2017-Apr-23 09:30N 26°05' W 080°07'2 3.6
2017-Apr-23 09:01N 26°06' W 080°05'2 3.8
2017-Apr-23 08:30N 26°05' W 080°07'  
2017-Apr-17 17:26N 26°06' W 080°07'2 4.3
2017-Apr-17 17:00N 26°04' W 080°07'0 0.6
2017-Apr-17 16:30N 26°04' W 080°07'3 5.3
2017-Apr-17 16:00N 26°06' W 080°04'2 4.6
2017-Apr-17 15:31N 26°05' W 080°07'1 2.9
2017-Apr-17 15:01N 26°06' W 080°05'1 1.5
2017-Apr-17 14:00N 26°05' W 080°07'0 0.2
2017-Apr-17 13:31N 26°05' W 080°07'0 0.5
2017-Apr-17 12:39N 26°06' W 080°07'210.3
2017-Apr-17 12:31N 26°05' W 080°06'1 3.0
2017-Apr-17 12:01N 26°06' W 080°07'0 0.5
2017-Apr-17 11:31N 26°06' W 080°07'1 1.0
2017-Apr-17 11:00N 26°06' W 080°06'2 4.6
2017-Apr-17 10:30N 26°04' W 080°05'2 3.5
2017-Apr-17 10:01N 26°06' W 080°05'2 3.2
2017-Apr-17 09:30N 26°06' W 080°04'3 6.6
2017-Apr-17 09:00N 26°06' W 080°07'  

Dump ship's entire track history